| time (UTC) | temp C | wind direction | speed KPH | gust KPH | rain 1hr cm | rain 24hr cm | rain mn cm | humidity % | barometer mb |
| 20260504151015 | 23 | 257 | 4.8 | 14.5 | 0.00 | 0.00 | 0.00 | 56 | 1008.5 |
| 20260504150514 | 23 | 265 | 4.8 | 14.5 | 0.00 | 0.00 | 0.00 | 56 | 1008.5 |
| 20260504141011 | 21 | 173 | 3.2 | 14.5 | 0.00 | 0.00 | 0.00 | 65 | 1008.9 |
| 20260504140515 | 20 | 173 | 6.4 | 14.5 | 0.00 | 0.00 | 0.00 | 66 | 1009.1 |
| 20260504130517 | 16 | 22 | 0.0 | 4.8 | 0.00 | 0.00 | 0.00 | 81 | 1010.2 |
| 20260504110514 | 13 | 0 | 0.0 | 0.0 | 0.00 | 0.00 | 0.00 | 83 | 1009.8 |
| 20260504100514 | 13 | 0 | 0.0 | 4.8 | 0.00 | 0.00 | 0.00 | 81 | 1009.7 |
| 20260504081535 | 17 | 0 | 0.0 | 6.4 | 0.00 | 0.00 | 0.00 | 67 | 1009.3 |
| 20260504081015 | 17 | 227 | 1.6 | 6.4 | 0.00 | 0.00 | 0.00 | 67 | 1009.3 |
| 20260504080514 | 17 | 0 | 0.0 | 6.4 | 0.00 | 0.00 | 0.00 | 66 | 1009.3 |
| 20260504050516 | 18 | 242 | 1.6 | 14.5 | 0.00 | 0.00 | 0.00 | 63 | 1010.2 |
| 20260504045516 | 18 | 290 | 3.2 | 16.1 | 0.00 | 0.00 | 0.00 | 61 | 1010.5 |
| 20260504045016 | 18 | 279 | 6.4 | 16.1 | 0.00 | 0.00 | 0.00 | 61 | 1010.6 |
| 20260504044533 | 18 | 194 | 4.8 | 19.3 | 0.00 | 0.00 | 0.00 | 61 | 1010.7 |
| 20260504044016 | 18 | 297 | 4.8 | 20.9 | 0.00 | 0.00 | 0.00 | 62 | 1010.7 |
| 20260504043516 | 18 | 288 | 6.4 | 20.9 | 0.00 | 0.00 | 0.00 | 62 | 1010.8 |
| 20260504043032 | 18 | 280 | 6.4 | 20.9 | 0.00 | 0.00 | 0.00 | 62 | 1010.8 |
| 20260504042517 | 17 | 261 | 4.8 | 17.7 | 0.00 | 0.00 | 0.00 | 62 | 1010.9 |
| 20260504042015 | 17 | 265 | 6.4 | 17.7 | 0.00 | 0.00 | 0.00 | 62 | 1011.2 |
| 20260504041532 | 17 | 277 | 3.2 | 16.1 | 0.00 | 0.00 | 0.00 | 63 | 1011.2 |
| 20260504041015 | 17 | 284 | 3.2 | 14.5 | 0.00 | 0.00 | 0.00 | 63 | 1011.4 |
| 20260504040515 | 17 | 297 | 3.2 | 12.9 | 0.00 | 0.00 | 0.00 | 63 | 1011.5 |
| 20260504040038 | 17 | 318 | 1.6 | 16.1 | 0.00 | 0.00 | 0.00 | 65 | 1011.6 |
| 20260504035520 | 17 | 284 | 4.8 | 16.1 | 0.00 | 0.00 | 0.00 | 64 | 1011.7 |
| 20260504035015 | 17 | 267 | 3.2 | 12.9 | 0.00 | 0.00 | 0.00 | 64 | 1011.6 |
| 20260504034535 | 16 | 270 | 1.6 | 11.3 | 0.00 | 0.00 | 0.00 | 65 | 1011.5 |
| 20260504034015 | 16 | 250 | 0.0 | 6.4 | 0.00 | 0.00 | 0.00 | 65 | 1011.6 |
| 20260504033516 | 16 | 0 | 0.0 | 6.4 | 0.00 | 0.00 | 0.00 | 65 | 1011.6 |
| 20260504033045 | 17 | 251 | 0.0 | 6.4 | 0.00 | 0.00 | 0.00 | 64 | 1011.7 |
| 20260504032516 | 17 | 0 | 0.0 | 4.8 | 0.00 | 0.00 | 0.00 | 64 | 1011.6 |
| 20260504032016 | 17 | 0 | 0.0 | 4.8 | 0.00 | 0.00 | 0.00 | 64 | 1011.6 |
| 20260504031532 | 17 | 228 | 0.0 | 6.4 | 0.00 | 0.00 | 0.00 | 63 | 1011.7 |
| 20260504031015 | 17 | 0 | 0.0 | 6.4 | 0.00 | 0.00 | 0.00 | 62 | 1011.6 |
| 20260504030515 | 17 | 229 | 1.6 | 6.4 | 0.00 | 0.00 | 0.00 | 62 | 1011.6 |
| 20260504030034 | 17 | 0 | 1.6 | 8.0 | 0.00 | 0.00 | 0.00 | 62 | 1011.6 |
| 20260504025516 | 16 | 230 | 1.6 | 8.0 | 0.00 | 0.00 | 0.00 | 62 | 1011.6 |
| 20260504025019 | 16 | 231 | 1.6 | 8.0 | 0.00 | 0.00 | 0.00 | 62 | 1011.5 |
| 20260504024544 | 16 | 279 | 0.0 | 11.3 | 0.00 | 0.00 | 0.00 | 62 | 1011.5 |
| 20260504024017 | 17 | 0 | 0.0 | 11.3 | 0.00 | 0.00 | 0.00 | 62 | 1011.5 |
| 20260504023516 | 17 | 0 | 0.0 | 4.8 | 0.00 | 0.00 | 0.00 | 61 | 1011.5 |
| 20260504023033 | 17 | 0 | 0.0 | 4.8 | 0.00 | 0.00 | 0.00 | 60 | 1011.5 |
| 20260504022516 | 17 | 0 | 0.0 | 4.8 | 0.00 | 0.00 | 0.00 | 61 | 1011.5 |
| 20260504022017 | 17 | 0 | 0.0 | 4.8 | 0.00 | 0.00 | 0.00 | 59 | 1011.4 |
| 20260504021531 | 18 | 303 | 0.0 | 3.2 | 0.00 | 0.00 | 0.00 | 58 | 1011.4 |
| 20260504021015 | 18 | 0 | 0.0 | 1.6 | 0.00 | 0.00 | 0.00 | 56 | 1011.5 |
| 20260504020515 | 18 | 0 | 0.0 | 1.6 | 0.00 | 0.00 | 0.00 | 56 | 1011.3 |
| 20260504020032 | 18 | 0 | 0.0 | 0.0 | 0.00 | 0.00 | 0.00 | 56 | 1011.3 |
| 20260504015516 | 19 | 0 | 0.0 | 3.2 | 0.00 | 0.00 | 0.00 | 56 | 1011.3 |
| 20260504015016 | 19 | 0 | 0.0 | 4.8 | 0.00 | 0.00 | 0.00 | 54 | 1011.3 |
| 20260504014532 | 19 | 0 | 0.0 | 4.8 | 0.00 | 0.00 | 0.00 | 51 | 1011.2 |
| 20260504014018 | 20 | 304 | 0.0 | 4.8 | 0.00 | 0.00 | 0.00 | 50 | 1011.3 |
| 20260504013516 | 20 | 0 | 0.0 | 3.2 | 0.00 | 0.00 | 0.00 | 50 | 1011.2 |
| 20260504013043 | 20 | 0 | 0.0 | 6.4 | 0.00 | 0.00 | 0.00 | 50 | 1011.2 |
| 20260504012516 | 20 | 302 | 0.0 | 6.4 | 0.00 | 0.00 | 0.00 | 49 | 1011.1 |
| 20260504012017 | 20 | 0 | 1.6 | 6.4 | 0.00 | 0.00 | 0.00 | 49 | 1011.1 |
| 20260504011530 | 20 | 303 | 0.0 | 6.4 | 0.00 | 0.00 | 0.00 | 49 | 1010.9 |
| 20260504011015 | 20 | 315 | 0.0 | 4.8 | 0.00 | 0.00 | 0.00 | 48 | 1011.0 |
| 20260504010519 | 20 | 0 | 1.6 | 6.4 | 0.00 | 0.00 | 0.00 | 48 | 1010.9 |
| 20260504010030 | 21 | 0 | 0.0 | 6.4 | 0.00 | 0.00 | 0.00 | 47 | 1010.9 |
| 20260504005516 | 21 | 0 | 0.0 | 11.3 | 0.00 | 0.00 | 0.00 | 47 | 1010.9 |
| 20260504005016 | 21 | 210 | 3.2 | 11.3 | 0.00 | 0.00 | 0.00 | 46 | 1010.9 |
| 20260504004541 | 21 | 0 | 1.6 | 11.3 | 0.00 | 0.00 | 0.00 | 46 | 1010.9 |
| 20260504004016 | 21 | 216 | 1.6 | 11.3 | 0.00 | 0.00 | 0.00 | 46 | 1010.9 |
| 20260504003515 | 21 | 257 | 1.6 | 4.8 | 0.00 | 0.00 | 0.00 | 46 | 1010.8 |
| 20260504003033 | 21 | 211 | 1.6 | 8.0 | 0.00 | 0.00 | 0.00 | 45 | 1010.9 |
| 20260504002515 | 21 | 0 | 1.6 | 12.9 | 0.00 | 0.00 | 0.00 | 46 | 1010.8 |
| 20260504002017 | 21 | 234 | 3.2 | 12.9 | 0.00 | 0.00 | 0.00 | 45 | 1010.9 |
| 20260504001534 | 22 | 238 | 3.2 | 11.3 | 0.00 | 0.00 | 0.00 | 44 | 1010.9 |
| 20260504001017 | 22 | 223 | 0.0 | 12.9 | 0.00 | 0.00 | 0.00 | 44 | 1010.9 |
| 20260504000519 | 22 | 207 | 3.2 | 12.9 | 0.00 | 0.00 | 0.00 | 44 | 1010.8 |
| 20260504000034 | 22 | 271 | 4.8 | 14.5 | 0.00 | 0.00 | 0.00 | 44 | 1010.9 |
| 20260503235516 | 22 | 286 | 3.2 | 17.7 | 0.00 | 0.00 | 0.00 | 44 | 1010.9 |
| 20260503235017 | 22 | 295 | 1.6 | 17.7 | 0.00 | 0.00 | 0.00 | 43 | 1011.1 |
| 20260503234532 | 22 | 274 | 6.4 | 17.7 | 0.00 | 0.00 | 0.00 | 42 | 1011.2 |
| 20260503234016 | 22 | 235 | 3.2 | 19.3 | 0.00 | 0.00 | 0.00 | 43 | 1011.2 |
| 20260503233516 | 22 | 290 | 4.8 | 19.3 | 0.00 | 0.00 | 0.00 | 42 | 1011.2 |
| 20260503233034 | 22 | 227 | 6.4 | 19.3 | 0.00 | 0.00 | 0.00 | 42 | 1011.2 |
| 20260503232516 | 22 | 255 | 4.8 | 17.7 | 0.00 | 0.00 | 0.00 | 42 | 1011.3 |
| 20260503232017 | 22 | 292 | 6.4 | 19.3 | 0.00 | 0.00 | 0.00 | 42 | 1011.3 |
| 20260503231534 | 22 | 213 | 9.7 | 19.3 | 0.00 | 0.00 | 0.00 | 41 | 1011.3 |
| 20260503231016 | 22 | 185 | 8.0 | 19.3 | 0.00 | 0.00 | 0.00 | 41 | 1011.3 |
| 20260503230515 | 23 | 302 | 6.4 | 17.7 | 0.00 | 0.00 | 0.00 | 41 | 1011.3 |
| 20260503230032 | 23 | 202 | 6.4 | 17.7 | 0.00 | 0.00 | 0.00 | 41 | 1011.3 |
| 20260503225516 | 23 | 184 | 6.4 | 24.1 | 0.00 | 0.00 | 0.00 | 42 | 1011.3 |
| 20260503225015 | 23 | 160 | 8.0 | 24.1 | 0.00 | 0.00 | 0.00 | 41 | 1011.4 |
| 20260503224531 | 23 | 288 | 9.7 | 19.3 | 0.00 | 0.00 | 0.00 | 40 | 1011.3 |
| 20260503224016 | 23 | 250 | 9.7 | 22.5 | 0.00 | 0.00 | 0.00 | 41 | 1011.3 |
| 20260503223516 | 23 | 257 | 9.7 | 22.5 | 0.00 | 0.00 | 0.00 | 41 | 1011.3 |
| 20260503223035 | 23 | 309 | 8.0 | 19.3 | 0.00 | 0.00 | 0.00 | 40 | 1011.3 |
| 20260503222515 | 23 | 281 | 4.8 | 17.7 | 0.00 | 0.00 | 0.00 | 40 | 1011.3 |
| 20260503222016 | 23 | 265 | 4.8 | 24.1 | 0.00 | 0.00 | 0.00 | 40 | 1011.3 |
| 20260503221536 | 23 | 170 | 6.4 | 24.1 | 0.00 | 0.00 | 0.00 | 41 | 1011.4 |
| 20260503221017 | 23 | 270 | 11.3 | 22.5 | 0.00 | 0.00 | 0.00 | 39 | 1011.4 |
| 20260503220515 | 23 | 180 | 8.0 | 19.3 | 0.00 | 0.00 | 0.00 | 40 | 1011.6 |
| 20260503220034 | 23 | 226 | 8.0 | 19.3 | 0.00 | 0.00 | 0.00 | 40 | 1011.6 |
| 20260503215516 | 23 | 227 | 8.0 | 22.5 | 0.00 | 0.00 | 0.00 | 39 | 1011.6 |
| 20260503215014 | 23 | 204 | 8.0 | 25.7 | 0.00 | 0.00 | 0.00 | 40 | 1011.7 |
| 20260503214532 | 23 | 236 | 8.0 | 25.7 | 0.00 | 0.00 | 0.00 | 40 | 1011.7 |
| 20260503214016 | 23 | 242 | 9.7 | 24.1 | 0.00 | 0.00 | 0.00 | 41 | 1011.9 |
| 20260503213519 | 23 | 269 | 11.3 | 24.1 | 0.00 | 0.00 | 0.00 | 40 | 1011.8 |
| 20260503213032 | 23 | 259 | 9.7 | 24.1 | 0.00 | 0.00 | 0.00 | 40 | 1011.8 |
| 20260503212516 | 23 | 292 | 6.4 | 24.1 | 0.00 | 0.00 | 0.00 | 41 | 1012.0 |
| 20260503212016 | 23 | 165 | 9.7 | 24.1 | 0.00 | 0.00 | 0.00 | 39 | 1012.0 |
| 20260503211538 | 23 | 150 | 12.9 | 24.1 | 0.00 | 0.00 | 0.00 | 39 | 1012.1 |
| 20260503211016 | 23 | 318 | 11.3 | 24.1 | 0.00 | 0.00 | 0.00 | 40 | 1012.3 |
| 20260503210515 | 23 | 186 | 6.4 | 19.3 | 0.00 | 0.00 | 0.00 | 40 | 1012.3 |
| 20260503210034 | 23 | 131 | 8.0 | 22.5 | 0.00 | 0.00 | 0.00 | 42 | 1012.4 |
| 20260503205522 | 23 | 203 | 8.0 | 30.6 | 0.00 | 0.00 | 0.00 | 40 | 1012.6 |
| 20260503205016 | 23 | 235 | 9.7 | 30.6 | 0.00 | 0.00 | 0.00 | 40 | 1012.7 |
| 20260503204532 | 23 | 178 | 8.0 | 19.3 | 0.00 | 0.00 | 0.00 | 40 | 1012.7 |
| 20260503204012 | 23 | 279 | 8.0 | 25.7 | 0.00 | 0.00 | 0.00 | 41 | 1013.0 |
| 20260503203516 | 23 | 209 | 6.4 | 25.7 | 0.00 | 0.00 | 0.00 | 43 | 1013.0 |
| 20260503203030 | 23 | 194 | 9.7 | 25.7 | 0.00 | 0.00 | 0.00 | 40 | 1013.1 |
| 20260503202516 | 23 | 302 | 8.0 | 22.5 | 0.00 | 0.00 | 0.00 | 43 | 1013.2 |
| 20260503202017 | 23 | 255 | 4.8 | 19.3 | 0.00 | 0.00 | 0.00 | 42 | 1013.5 |
| 20260503201534 | 22 | 214 | 4.8 | 22.5 | 0.00 | 0.00 | 0.00 | 42 | 1013.6 |
| 20260503201015 | 22 | 198 | 8.0 | 24.1 | 0.00 | 0.00 | 0.00 | 40 | 1013.8 |
| 20260503200515 | 23 | 250 | 4.8 | 24.1 | 0.00 | 0.00 | 0.00 | 41 | 1014.0 |
| 20260503200034 | 22 | 273 | 6.4 | 17.7 | 0.00 | 0.00 | 0.00 | 43 | 1014.1 |
| 20260503195517 | 22 | 223 | 6.4 | 17.7 | 0.00 | 0.00 | 0.00 | 42 | 1014.2 |
| 20260503195017 | 22 | 275 | 8.0 | 20.9 | 0.00 | 0.00 | 0.00 | 41 | 1014.5 |
| 20260503194540 | 22 | 218 | 4.8 | 22.5 | 0.00 | 0.00 | 0.00 | 42 | 1014.7 |
| 20260503194015 | 22 | 266 | 9.7 | 22.5 | 0.00 | 0.00 | 0.00 | 42 | 1014.7 |
| 20260503193516 | 22 | 176 | 9.7 | 22.5 | 0.00 | 0.00 | 0.00 | 42 | 1014.9 |
| 20260503193040 | 22 | 219 | 8.0 | 19.3 | 0.00 | 0.00 | 0.00 | 41 | 1015.1 |
| 20260503192514 | 22 | 227 | 6.4 | 19.3 | 0.00 | 0.00 | 0.00 | 42 | 1015.2 |
| 20260503192018 | 22 | 235 | 9.7 | 25.7 | 0.00 | 0.00 | 0.00 | 41 | 1015.2 |
| 20260503191531 | 22 | 219 | 11.3 | 25.7 | 0.00 | 0.00 | 0.00 | 41 | 1015.3 |
| 20260503191016 | 22 | 242 | 8.0 | 19.3 | 0.00 | 0.00 | 0.00 | 42 | 1015.4 |
| 20260503190515 | 22 | 248 | 6.4 | 17.7 | 0.00 | 0.00 | 0.00 | 41 | 1015.6 |
| 20260503190041 | 22 | 157 | 6.4 | 16.1 | 0.00 | 0.00 | 0.00 | 43 | 1015.8 |
| 20260503185515 | 21 | 221 | 6.4 | 16.1 | 0.00 | 0.00 | 0.00 | 42 | 1015.8 |
| 20260503185016 | 21 | 179 | 3.2 | 16.1 | 0.00 | 0.00 | 0.00 | 44 | 1016.0 |
| 20260503184534 | 21 | 242 | 4.8 | 19.3 | 0.00 | 0.00 | 0.00 | 44 | 1016.2 |
| 20260503184015 | 21 | 197 | 6.4 | 19.3 | 0.00 | 0.00 | 0.00 | 43 | 1016.2 |
| 20260503183516 | 21 | 290 | 8.0 | 17.7 | 0.00 | 0.00 | 0.00 | 44 | 1016.5 |
| 20260503183031 | 21 | 304 | 6.4 | 17.7 | 0.00 | 0.00 | 0.00 | 47 | 1016.5 |
| 20260503182523 | 21 | 280 | 8.0 | 17.7 | 0.00 | 0.00 | 0.00 | 43 | 1016.7 |
| 20260503182017 | 21 | 300 | 6.4 | 20.9 | 0.00 | 0.00 | 0.00 | 43 | 1016.8 |
| 20260503181533 | 20 | 286 | 8.0 | 20.9 | 0.00 | 0.00 | 0.00 | 41 | 1017.0 |
| 20260503181018 | 20 | 291 | 4.8 | 27.4 | 0.00 | 0.00 | 0.00 | 44 | 1017.1 |
| 20260503180518 | 20 | 278 | 4.8 | 27.4 | 0.00 | 0.00 | 0.00 | 42 | 1017.1 |
| 20260503180034 | 20 | 240 | 9.7 | 24.1 | 0.00 | 0.00 | 0.00 | 43 | 1017.2 |
| 20260503175516 | 20 | 286 | 9.7 | 24.1 | 0.00 | 0.00 | 0.00 | 45 | 1017.4 |
| 20260503175018 | 20 | 186 | 8.0 | 24.1 | 0.00 | 0.00 | 0.00 | 47 | 1017.5 |
| 20260503174547 | 20 | 259 | 9.7 | 20.9 | 0.00 | 0.00 | 0.00 | 48 | 1017.5 |
| 20260503174015 | 19 | 269 | 6.4 | 27.4 | 0.00 | 0.00 | 0.00 | 47 | 1017.6 |
| 20260503173515 | 19 | 232 | 11.3 | 27.4 | 0.00 | 0.00 | 0.00 | 48 | 1017.7 |
| 20260503173032 | 19 | 261 | 8.0 | 25.7 | 0.00 | 0.00 | 0.00 | 49 | 1017.7 |
| 20260503172512 | 18 | 184 | 8.0 | 25.7 | 0.00 | 0.00 | 0.00 | 47 | 1017.9 |
| 20260503172015 | 18 | 161 | 9.7 | 29.0 | 0.00 | 0.00 | 0.00 | 46 | 1018.0 |
| 20260503171530 | 18 | 198 | 9.7 | 29.0 | 0.00 | 0.00 | 0.00 | 47 | 1018.2 |
| 20260503171016 | 18 | 245 | 11.3 | 29.0 | 0.00 | 0.00 | 0.00 | 46 | 1018.3 |
| 20260503170516 | 18 | 281 | 8.0 | 24.1 | 0.00 | 0.00 | 0.00 | 47 | 1018.5 |